Marselisborg — A8VR8 — position and weather

sailwx.info

Track history (hours):
 
Tides and Currents Weather Stations Pressure Air Temp Water Temp Dewpoint Dewpoint Depression Visibility Wind Speed Wind Dir Waves Ship Positions

Marselisborg

Last reported at 2014-Oct-30 21:10 UTC. Time now 2014-Oct-31 12:08 UTC.
Position N 31°47' W 116°46'.

Length 138 m; draft 6.9 m.

Type: Ship. MMSI: 636092036.

Date/timePositionNaut miles runAvg speedWind from/ knotsBaromVisibWave heightAir tempDewpointWater temp
2014-Oct-30 21:10N 31°47' W 116°46'914.9
2014-Oct-30 20:33N 31°43' W 116°56'5513.7
2014-Oct-30 16:31N 31°22' W 117°55'1212.8
2014-Oct-30 15:33N 31°16' W 118°08'1413.0
2014-Oct-30 14:27N 31°07' W 118°21'1213.0
2014-Oct-30 13:31N 30°59' W 118°32'1313.0
2014-Oct-30 12:33N 30°54' W 118°45'1313.0
2014-Oct-30 11:33N 30°50' W 118°60'1313.0
2014-Oct-30 10:33N 30°47' W 119°14'5011.9
2014-Oct-30 06:22N 31°02' W 120°09'1112.8
2014-Oct-30 05:31N 31°10' W 120°18'1913.0
2014-Oct-30 04:05N 31°22' W 120°35'812.8
2014-Oct-30 03:29N 31°27' W 120°41'1712.9
2014-Oct-30 02:11N 31°38' W 120°56'11713.0
2014-Oct-29 17:09N 32°60' W 122°36'1013.1
2014-Oct-29 16:22N 33°09' W 122°40'1012.9
2014-Oct-29 15:33N 33°19' W 122°45'1313.0
2014-Oct-29 14:33N 33°31' W 122°51'1312.7
2014-Oct-29 13:33N 33°43' W 122°57'1212.3
2014-Oct-29 12:33N 33°54' W 123°03'1212.3
2014-Oct-29 11:33N 34°05' W 123°08'1212.4
2014-Oct-29 10:33N 34°17' W 123°14'1312.6
2014-Oct-29 09:33N 34°28' W 123°20'1312.8
2014-Oct-29 08:33N 34°40' W 123°26'1312.6
2014-Oct-29 07:33N 34°52' W 123°32'1312.9
2014-Oct-29 06:33N 35°04' W 123°38'1312.9
2014-Oct-29 05:33N 35°16' W 123°44'1313.2
2014-Oct-29 04:33N 35°28' W 123°50'1313.1
2014-Oct-29 03:33N 35°40' W 123°56'1313.1
2014-Oct-29 02:33N 35°52' W 124°02'1513.0
2014-Oct-29 01:25N 36°06' W 124°09'3612.6
2014-Oct-28 22:33N 36°39' W 124°27'1312.2
2014-Oct-28 21:31N 36°51' W 124°33'1412.2
2014-Oct-28 20:21N 37°04' W 124°40'2912.6
2014-Oct-28 18:04N 37°30' W 124°53'712.6
2014-Oct-28 17:33N 37°36' W 124°56'2814.0
2014-Oct-28 15:33N 38°02' W 125°09'61812.6
2014-Oct-26 14:28N 48°20' W 125°10'1011.3
2014-Oct-26 13:33N 48°29' W 125°04'1110.6
2014-Oct-26 12:33N 48°31' W 124°48'1010.1
2014-Oct-26 11:34N 48°28' W 124°33'1010.1
2014-Oct-26 10:33N 48°24' W 124°19'1010.2
2014-Oct-26 09:34N 48°20' W 124°05'1010.1
2014-Oct-26 08:33N 48°17' W 123°50'1110.6
2014-Oct-26 07:32N 48°16' W 123°34'1111.0
2014-Oct-26 06:34N 48°24' W 123°23'9 9.2
2014-Oct-26 05:34N 48°29' W 123°12'1414.3
2014-Oct-26 04:33N 48°43' W 123°11'10 9.6
2014-Oct-26 03:34N 48°53' W 123°08'1616.2
2014-Oct-26 02:34N 49°04' W 123°26'1515.3
2014-Oct-26 01:33N 49°12' W 123°46'7 6.6
2014-Oct-26 00:30N 49°10' W 123°55'0 0.0
2014-Oct-25 23:32N 49°10' W 123°55'0 0.0
2014-Oct-25 20:08N 49°10' W 123°55'0 0.0
2014-Oct-25 19:29N 49°10' W 123°55'0 0.0
2014-Oct-25 18:11N 49°10' W 123°55'0 0.0
2014-Oct-25 17:23N 49°10' W 123°55'0 0.0
2014-Oct-25 08:20N 49°10' W 123°55'0 0.0
2014-Oct-25 03:32N 49°10' W 123°55'0 0.0
2014-Oct-25 02:32N 49°10' W 123°55'0 0.0
2014-Oct-25 01:32N 49°10' W 123°55'0 0.0
2014-Oct-25 00:32N 49°10' W 123°55'0 0.0
2014-Oct-24 23:29N 49°10' W 123°55'0 0.0
2014-Oct-24 22:17N 49°10' W 123°55'0 0.0
2014-Oct-24 21:05N 49°10' W 123°55'0 0.0
2014-Oct-24 20:29N 49°10' W 123°55'0 0.0
2014-Oct-24 09:11N 49°10' W 123°55'0 0.1
2014-Oct-24 08:29N 49°10' W 123°55'0 0.0
2014-Oct-24 07:29N 49°10' W 123°55'0 0.0
2014-Oct-24 06:29N 49°10' W 123°55'0 0.0
2014-Oct-24 02:17N 49°10' W 123°55'0 0.0
2014-Oct-24 01:11N 49°10' W 123°55'0 0.1
2014-Oct-24 00:28N 49°10' W 123°55'0 0.0
2014-Oct-23 23:28N 49°10' W 123°55'4 4.6
2014-Oct-23 22:32N 49°13' W 123°51'1313.2
2014-Oct-23 21:32N 49°09' W 123°32'1111.3
2014-Oct-23 20:33N 49°08' W 123°15'10 9.7
2014-Oct-23 19:33N 49°09' W 123°00'4 3.5
2014-Oct-23 18:24N 49°11' W 122°55'0 0.0
2014-Oct-23 17:24N 49°11' W 122°55'0 0.0
2014-Oct-23 16:18N 49°11' W 122°55'0 0.0
2014-Oct-23 15:06N 49°11' W 122°55'0 0.0
2014-Oct-23 14:30N 49°11' W 122°55'0 0.0
2014-Oct-23 13:30N 49°11' W 122°55'0 0.0
2014-Oct-23 12:30N 49°11' W 122°55'0 0.0
2014-Oct-23 09:08N 49°11' W 122°55'0 0.0
2014-Oct-23 08:33N 49°11' W 122°55'0 0.0
2014-Oct-23 07:33N 49°11' W 122°55'0 0.0
2014-Oct-23 06:33N 49°11' W 122°55'7 7.3
2014-Oct-23 05:33N 49°07' W 123°04'9 9.3
2014-Oct-23 04:33N 49°06' W 123°18'1010.4
2014-Oct-23 03:33N 48°57' W 123°10'1212.2
2014-Oct-23 02:33N 48°46' W 123°01'1111.6
2014-Oct-23 01:33N 48°38' W 123°14'1413.5
2014-Oct-23 00:33N 48°25' W 123°11'1111.1
2014-Oct-22 23:33N 48°19' W 123°25'10 9.9
2014-Oct-22 22:33N 48°13' W 123°37'1211.1
2014-Oct-22 21:28N 48°13' W 123°55'1314.1
2014-Oct-22 20:34N 48°19' W 124°13'1414.3
2014-Oct-22 19:33N 48°25' W 124°32'1313.0
2014-Oct-22 18:33N 48°29' W 124°51'1412.1
2014-Oct-22 17:25N 48°22' W 125°09'1112.0
2014-Oct-22 16:31N 48°17' W 125°24'  
Track history (hours):
 
Tides and Currents Weather Stations Pressure Air Temp Water Temp Dewpoint Dewpoint Depression Visibility Wind Speed Wind Dir Waves Ship Positions

Marselisborg

Last reported at 2014-Oct-30 21:10 UTC. Time now 2014-Oct-31 12:08 UTC.
Position N 31°47' W 116°46'.

Length 138 m; draft 6.9 m.

Type: Ship. MMSI: 636092036.

Date/timePositionNaut miles runAvg speedWind from/ knotsBaromVisibWave heightAir tempDewpointWater temp
2014-Oct-30 21:10N 31°47' W 116°46'914.9
2014-Oct-30 20:33N 31°43' W 116°56'5513.7
2014-Oct-30 16:31N 31°22' W 117°55'1212.8
2014-Oct-30 15:33N 31°16' W 118°08'1413.0
2014-Oct-30 14:27N 31°07' W 118°21'1213.0
2014-Oct-30 13:31N 30°59' W 118°32'1313.0
2014-Oct-30 12:33N 30°54' W 118°45'1313.0
2014-Oct-30 11:33N 30°50' W 118°60'1313.0
2014-Oct-30 10:33N 30°47' W 119°14'5011.9
2014-Oct-30 06:22N 31°02' W 120°09'1112.8
2014-Oct-30 05:31N 31°10' W 120°18'1913.0
2014-Oct-30 04:05N 31°22' W 120°35'812.8
2014-Oct-30 03:29N 31°27' W 120°41'1712.9
2014-Oct-30 02:11N 31°38' W 120°56'11713.0
2014-Oct-29 17:09N 32°60' W 122°36'1013.1
2014-Oct-29 16:22N 33°09' W 122°40'1012.9
2014-Oct-29 15:33N 33°19' W 122°45'1313.0
2014-Oct-29 14:33N 33°31' W 122°51'1312.7
2014-Oct-29 13:33N 33°43' W 122°57'1212.3
2014-Oct-29 12:33N 33°54' W 123°03'1212.3
2014-Oct-29 11:33N 34°05' W 123°08'1212.4
2014-Oct-29 10:33N 34°17' W 123°14'1312.6
2014-Oct-29 09:33N 34°28' W 123°20'1312.8
2014-Oct-29 08:33N 34°40' W 123°26'1312.6
2014-Oct-29 07:33N 34°52' W 123°32'1312.9
2014-Oct-29 06:33N 35°04' W 123°38'1312.9
2014-Oct-29 05:33N 35°16' W 123°44'1313.2
2014-Oct-29 04:33N 35°28' W 123°50'1313.1
2014-Oct-29 03:33N 35°40' W 123°56'1313.1
2014-Oct-29 02:33N 35°52' W 124°02'1513.0
2014-Oct-29 01:25N 36°06' W 124°09'3612.6
2014-Oct-28 22:33N 36°39' W 124°27'1312.2
2014-Oct-28 21:31N 36°51' W 124°33'1412.2
2014-Oct-28 20:21N 37°04' W 124°40'2912.6
2014-Oct-28 18:04N 37°30' W 124°53'712.6
2014-Oct-28 17:33N 37°36' W 124°56'2814.0
2014-Oct-28 15:33N 38°02' W 125°09'61812.6
2014-Oct-26 14:28N 48°20' W 125°10'1011.3
2014-Oct-26 13:33N 48°29' W 125°04'1110.6
2014-Oct-26 12:33N 48°31' W 124°48'1010.1
2014-Oct-26 11:34N 48°28' W 124°33'1010.1
2014-Oct-26 10:33N 48°24' W 124°19'1010.2
2014-Oct-26 09:34N 48°20' W 124°05'1010.1
2014-Oct-26 08:33N 48°17' W 123°50'1110.6
2014-Oct-26 07:32N 48°16' W 123°34'1111.0
2014-Oct-26 06:34N 48°24' W 123°23'9 9.2
2014-Oct-26 05:34N 48°29' W 123°12'1414.3
2014-Oct-26 04:33N 48°43' W 123°11'10 9.6
2014-Oct-26 03:34N 48°53' W 123°08'1616.2
2014-Oct-26 02:34N 49°04' W 123°26'1515.3
2014-Oct-26 01:33N 49°12' W 123°46'7 6.6
2014-Oct-26 00:30N 49°10' W 123°55'0 0.0
2014-Oct-25 23:32N 49°10' W 123°55'0 0.0
2014-Oct-25 20:08N 49°10' W 123°55'0 0.0
2014-Oct-25 19:29N 49°10' W 123°55'0 0.0
2014-Oct-25 18:11N 49°10' W 123°55'0 0.0
2014-Oct-25 17:23N 49°10' W 123°55'0 0.0
2014-Oct-25 08:20N 49°10' W 123°55'0 0.0
2014-Oct-25 03:32N 49°10' W 123°55'0 0.0
2014-Oct-25 02:32N 49°10' W 123°55'0 0.0
2014-Oct-25 01:32N 49°10' W 123°55'0 0.0
2014-Oct-25 00:32N 49°10' W 123°55'0 0.0
2014-Oct-24 23:29N 49°10' W 123°55'0 0.0
2014-Oct-24 22:17N 49°10' W 123°55'0 0.0
2014-Oct-24 21:05N 49°10' W 123°55'0 0.0
2014-Oct-24 20:29N 49°10' W 123°55'0 0.0
2014-Oct-24 09:11N 49°10' W 123°55'0 0.1
2014-Oct-24 08:29N 49°10' W 123°55'0 0.0
2014-Oct-24 07:29N 49°10' W 123°55'0 0.0
2014-Oct-24 06:29N 49°10' W 123°55'0 0.0
2014-Oct-24 02:17N 49°10' W 123°55'0 0.0
2014-Oct-24 01:11N 49°10' W 123°55'0 0.1
2014-Oct-24 00:28N 49°10' W 123°55'0 0.0
2014-Oct-23 23:28N 49°10' W 123°55'4 4.6
2014-Oct-23 22:32N 49°13' W 123°51'1313.2
2014-Oct-23 21:32N 49°09' W 123°32'1111.3
2014-Oct-23 20:33N 49°08' W 123°15'10 9.7
2014-Oct-23 19:33N 49°09' W 123°00'4 3.5
2014-Oct-23 18:24N 49°11' W 122°55'0 0.0
2014-Oct-23 17:24N 49°11' W 122°55'0 0.0
2014-Oct-23 16:18N 49°11' W 122°55'0 0.0
2014-Oct-23 15:06N 49°11' W 122°55'0 0.0
2014-Oct-23 14:30N 49°11' W 122°55'0 0.0
2014-Oct-23 13:30N 49°11' W 122°55'0 0.0
2014-Oct-23 12:30N 49°11' W 122°55'0 0.0
2014-Oct-23 09:08N 49°11' W 122°55'0 0.0
2014-Oct-23 08:33N 49°11' W 122°55'0 0.0
2014-Oct-23 07:33N 49°11' W 122°55'0 0.0
2014-Oct-23 06:33N 49°11' W 122°55'7 7.3
2014-Oct-23 05:33N 49°07' W 123°04'9 9.3
2014-Oct-23 04:33N 49°06' W 123°18'1010.4
2014-Oct-23 03:33N 48°57' W 123°10'1212.2
2014-Oct-23 02:33N 48°46' W 123°01'1111.6
2014-Oct-23 01:33N 48°38' W 123°14'1413.5
2014-Oct-23 00:33N 48°25' W 123°11'1111.1
2014-Oct-22 23:33N 48°19' W 123°25'10 9.9
2014-Oct-22 22:33N 48°13' W 123°37'1211.1
2014-Oct-22 21:28N 48°13' W 123°55'1314.1
2014-Oct-22 20:34N 48°19' W 124°13'1414.3
2014-Oct-22 19:33N 48°25' W 124°32'1313.0
2014-Oct-22 18:33N 48°29' W 124°51'1412.1
2014-Oct-22 17:25N 48°22' W 125°09'1112.0
2014-Oct-22 16:31N 48°17' W 125°24'  

Dump ship's entire track history